X  ZavřítMETAR data      LKPD Pardubice Airport

Teplota

18°C Teplota

17°C Rosný bod

94% Vlhkost



Vítr

 3 KM/H

 2 MPH

 1 M/S

 2 KTS



Klidno
Severní směr
Současné podmínky

Jasno Jasno
Tlak vzduchu 1013.92 (hPa) - 29.94 (in)
Dohlednost 6.2 (mi) - 10 (km)
Letiště
Kód letiště LKPD

Lokace Pardubice Airport 80 (km)

Metar:
LKPD 142200Z VRB02KT CAVOK 18/17 Q1014

Čas: 15-08-2020 00:00